My webcam Meer informatie My webcam


Onweer radar Meer informatie blitzortung!


Regen radar Meer informatie rain snow radar


Bezoek ook deze websites:

Template documentation
and downloads

And another site

Leuven-Template Forum

support.leuven-template



Het weer levert geen direct gevaar op.    Er zijn geen waarschuwingen afgegeven.

METAR rapporten vliegvelden

   
EHVK - Volkel Rnlafb, Netherlands
Afstand tot: ZW 18 km
Gewijzigd: 13-07-2020 00:25
Grotendeels bewolkt  
Grotendeels bewolkt  
   Wind: Noorden 5.6 km/h
Wind: Noorden 5.6 km/h
Temperatuur: 14°C
Dauwpunt: 9°C
Vochtigheid: 72%
Barometer: 1026 hPa
Bewolking: Grotendeels bewolkt
Zicht: meer dan 10 km
Bewolking: Grotendeels bewolkt 27000 ft,
Grotendeels bewolkt 32000 ft
EHVK 122225Z AUTO 01003KT 9999 BKN270 BKN320 14/09 Q1026 BLU
EDLV - Niederrhein, Germany
Afstand tot: ZO 25 km
Gewijzigd: 12-07-2020 23:50
Helder  
Helder  
   Wind: varieert 3.7 km/h
Wind: varieert 3.7 km/h
Temperatuur: 16°C
Dauwpunt: 9°C
Vochtigheid: 63%
Barometer: 1027 hPa
Zicht: meer dan 10 km
Bewolking: Helder
EDLV 122150Z VRB02KT CAVOK 16/09 Q1027
EHDL - Deelen Rnlafb, Netherlands
Afstand tot: N 35 km
Gewijzigd: 13-07-2020 00:25
Bewolking  
Bewolking  
   Wind: NO 11.1 km/h
Wind: NO 11.1 km/h
Temperatuur: 13°C
Dauwpunt: 10°C
Vochtigheid: 82%
Barometer: 1027 hPa
Bewolking: Bewolking
Zicht: meer dan 10 km
Bewolking: Grotendeels bewolkt 27000 ft,
Bewolking 32000 ft
EHDL 122225Z AUTO 04006KT 340V090 9999 BKN270 OVC320 13/10 Q1027 BLU
EHEH - Eindhoven Rnlafb, Netherlands
Afstand tot: ZW 48 km
Gewijzigd: 13-07-2020 00:25
Bewolking  
Bewolking  
   Wind: NNO 11.1 km/h
Wind: NNO 11.1 km/h
Temperatuur: 13°C
Dauwpunt: 9°C
Vochtigheid: 77%
Barometer: 1026 hPa
Bewolking: Bewolking
Zicht: meer dan 10 km
Bewolking: Bewolking 24000 ft
EHEH 122225Z AUTO 02006KT 9999 OVC240 13/09 Q1026 BLU
EHGR - Gilze-Rijen Rnla, Netherlands
Afstand tot: WZW 70 km
Gewijzigd: 13-07-2020 00:25
Bewolking  
Bewolking  
   Wind: NNO 9.3 km/h
Wind: NNO 9.3 km/h
Temperatuur: 13°C
Dauwpunt: 10°C
Vochtigheid: 82%
Barometer: 1026 hPa
Bewolking: Bewolking
Zicht: meer dan 10 km
Bewolking: Bewolking 24000 ft
EHGR 122225Z AUTO 02005KT 320V060 9999 OVC240 13/10 Q1026 BLU
EBBL - Kleine-Brogel(Ba, Belgium
Afstand tot: ZZW 71 km
Gewijzigd: 12-07-2020 23:55
Helder  
Helder  
   Wind: varieert 3.7 km/h
Wind: varieert 3.7 km/h
Temperatuur: 13°C
Dauwpunt: 9°C
Vochtigheid: 77%
Barometer: 1026 hPa
Bewolking: Helder
Zicht: meer dan 10 km
Bewolking: Helder
EBBL 122155Z AUTO VRB02KT 9999 NCD 13/09 Q1026 BLU

Script ontwikkeld door  Saratoga-weather.org Aangepast voor de template door  Weerstation Leuven

U vindt ons ook hier:

Het Weer Aktueel

European Weather Network

WeatherCloud

Weather Underground

Benelux Weer Netwerk

AWEKAS

Apparatuur in gebruik:

Weerstation
Davis VP2

Weerprogramma
Meteobridge

Weercomputer
My Computer

Webleverancier
My provider

Davis VP2

Meteobridge

My Computer

My provider